Time,TemperatureF,DewpointF,PressureIn,WindDirection,WindDirectionDegrees,WindSpeedMPH,WindSpeedGustMPH,Humidity,HourlyPrecipIn,Conditions,Clouds,dailyrainin,SoftwareType,DateUTC
2013-01-06 00:04:00,24.6,17.2,30.19,NW,322,0.0,3.0,73,0.00,,CLR,0.00,VWS V14.00,2013-01-06 05:04:00,
2013-01-06 00:05:00,24.5,17.1,30.18,NW,322,0.0,0.0,73,0.00,,CLR,0.00,VWS V14.00,2013-01-06 05:05:00,
2013-01-06 00:10:00,24.5,17.1,30.18,NW,322,0.0,0.0,73,0.00,,CLR,0.00,VWS V14.00,2013-01-06 05:10:00,
2013-01-06 00:15:00,24.4,17.3,30.18,NW,322,0.0,0.0,74,0.00,,CLR,0.00,VWS V14.00,2013-01-06 05:15:00,
2013-01-06 00:20:00,24.6,17.5,30.17,NW,322,0.0,0.0,74,0.00,,CLR,0.00,VWS V14.00,2013-01-06 05:20:00,
2013-01-06 00:25:00,24.7,17.6,30.17,NW,322,0.0,0.0,74,0.00,,CLR,0.00,VWS V14.00,2013-01-06 05:25:00,
2013-01-06 00:30:00,24.6,17.5,30.16,NW,322,0.0,0.0,74,0.00,,CLR,0.00,VWS V14.00,2013-01-06 05:30:00,
2013-01-06 00:35:00,24.6,17.5,30.16,NW,322,0.0,2.0,74,0.00,,CLR,0.00,VWS V14.00,2013-01-06 05:35:00,
2013-01-06 00:40:00,24.6,17.5,30.16,NW,322,0.0,2.0,74,0.00,,CLR,0.00,VWS V14.00,2013-01-06 05:40:00,
2013-01-06 00:45:00,24.6,17.5,30.16,NW,322,0.0,2.0,74,0.00,,CLR,0.00,VWS V14.00,2013-01-06 05:45:00,
2013-01-06 00:50:00,24.6,17.8,30.16,NW,322,0.0,2.0,75,0.00,,CLR,0.00,VWS V14.00,2013-01-06 05:50:00,
2013-01-06 00:55:00,24.6,17.5,30.17,NW,322,0.0,2.0,74,0.00,,CLR,0.00,VWS V14.00,2013-01-06 05:55:00,
2013-01-06 01:00:00,24.6,17.8,30.17,NW,322,0.0,0.0,75,0.00,,CLR,0.00,VWS V14.00,2013-01-06 06:00:00,
2013-01-06 01:05:00,24.6,17.8,30.16,NW,322,0.0,0.0,75,0.00,,CLR,0.00,VWS V14.00,2013-01-06 06:05:00,
2013-01-06 01:10:00,24.6,17.8,30.17,NW,322,0.0,0.0,75,0.00,,CLR,0.00,VWS V14.00,2013-01-06 06:10:00,
2013-01-06 01:15:00,24.6,17.8,30.18,NW,322,0.0,0.0,75,0.00,,CLR,0.00,VWS V14.00,2013-01-06 06:15:00,
2013-01-06 01:20:00,24.4,17.9,30.18,NW,322,0.0,0.0,76,0.00,,CLR,0.00,VWS V14.00,2013-01-06 06:20:00,
2013-01-06 01:25:00,24.5,18.0,30.18,NW,322,0.0,0.0,76,0.00,,CLR,0.00,VWS V14.00,2013-01-06 06:25:00,
2013-01-06 01:30:00,24.4,17.9,30.19,NW,322,0.0,0.0,76,0.00,,CLR,0.00,VWS V14.00,2013-01-06 06:30:00,
2013-01-06 01:35:00,24.5,18.0,30.19,NW,322,0.0,0.0,76,0.00,,CLR,0.00,VWS V14.00,2013-01-06 06:35:00,
2013-01-06 01:40:00,24.5,18.0,30.19,NW,322,0.0,0.0,76,0.00,,CLR,0.00,VWS V14.00,2013-01-06 06:40:00,
2013-01-06 01:45:00,24.6,18.4,30.20,NW,322,0.0,0.0,77,0.00,,CLR,0.00,VWS V14.00,2013-01-06 06:45:00,
2013-01-06 01:50:00,24.5,18.3,30.20,NW,322,0.0,0.0,77,0.00,,CLR,0.00,VWS V14.00,2013-01-06 06:50:00,
2013-01-06 01:55:00,24.6,18.7,30.20,NW,322,0.0,0.0,78,0.00,,CLR,0.00,VWS V14.00,2013-01-06 06:55:00,
2013-01-06 02:00:00,24.6,18.7,30.20,NW,322,0.0,0.0,78,0.00,,CLR,0.00,VWS V14.00,2013-01-06 07:00:00,
2013-01-06 02:05:00,24.7,18.5,30.21,NW,322,0.0,0.0,77,0.00,,CLR,0.00,VWS V14.00,2013-01-06 07:05:00,
2013-01-06 02:10:00,24.9,18.4,30.21,NW,322,0.0,0.0,76,0.00,,CLR,0.00,VWS V14.00,2013-01-06 07:10:00,
2013-01-06 02:15:00,25.0,18.5,30.20,NW,322,0.0,0.0,76,0.00,,CLR,0.00,VWS V14.00,2013-01-06 07:15:00,
2013-01-06 02:20:00,25.2,18.7,30.18,NW,322,0.0,0.0,76,0.00,,CLR,0.00,VWS V14.00,2013-01-06 07:20:00,
2013-01-06 02:25:00,25.2,18.7,30.19,NW,322,0.0,0.0,76,0.00,,CLR,0.00,VWS V14.00,2013-01-06 07:25:00,
2013-01-06 02:30:00,25.3,19.1,30.19,NW,322,0.0,0.0,77,0.00,,CLR,0.00,VWS V14.00,2013-01-06 07:30:00,
2013-01-06 02:35:00,25.5,19.3,30.17,NW,322,0.0,0.0,77,0.00,,CLR,0.00,VWS V14.00,2013-01-06 07:35:00,
2013-01-06 02:40:00,25.5,19.6,30.17,NW,322,0.0,0.0,78,0.00,,CLR,0.00,VWS V14.00,2013-01-06 07:40:00,
2013-01-06 02:45:00,25.5,19.3,30.18,NW,322,0.0,0.0,77,0.00,,CLR,0.00,VWS V14.00,2013-01-06 07:45:00,
2013-01-06 02:50:00,25.6,19.4,30.18,NW,322,0.0,0.0,77,0.00,,CLR,0.00,VWS V14.00,2013-01-06 07:50:00,
2013-01-06 02:55:00,25.6,19.4,30.17,NW,322,0.0,0.0,77,0.00,,CLR,0.00,VWS V14.00,2013-01-06 07:55:00,
2013-01-06 03:00:00,25.8,19.9,30.17,NW,322,0.0,0.0,78,0.00,,CLR,0.00,VWS V14.00,2013-01-06 08:00:00,
2013-01-06 03:05:00,25.8,19.9,30.16,NW,322,0.0,0.0,78,0.00,,BKN110,0.00,VWS V14.00,2013-01-06 08:05:00,
2013-01-06 03:10:00,25.8,19.9,30.16,NW,322,0.0,0.0,78,0.00,,BKN110,0.00,VWS V14.00,2013-01-06 08:10:00,
2013-01-06 03:15:00,25.8,19.9,30.15,NW,322,0.0,0.0,78,0.00,,BKN110,0.00,VWS V14.00,2013-01-06 08:15:00,
2013-01-06 03:20:00,25.8,19.9,30.15,NW,322,0.0,0.0,78,0.00,,BKN110,0.00,VWS V14.00,2013-01-06 08:20:00,
2013-01-06 03:25:00,25.8,19.9,30.15,NW,322,0.0,0.0,78,0.00,,BKN110,0.00,VWS V14.00,2013-01-06 08:25:00,
2013-01-06 03:30:00,25.8,19.9,30.15,NW,322,0.0,0.0,78,0.00,,BKN110,0.00,VWS V14.00,2013-01-06 08:30:00,
2013-01-06 03:35:00,25.8,19.9,30.14,NW,322,0.0,0.0,78,0.00,,BKN110,0.00,VWS V14.00,2013-01-06 08:35:00,
2013-01-06 03:40:00,25.9,20.0,30.14,NW,322,0.0,0.0,78,0.00,,BKN110,0.00,VWS V14.00,2013-01-06 08:40:00,
2013-01-06 03:45:00,25.9,20.3,30.14,NW,322,0.0,0.0,79,0.00,,BKN110,0.00,VWS V14.00,2013-01-06 08:45:00,
2013-01-06 03:50:00,25.8,20.2,30.13,NW,322,0.0,0.0,79,0.00,,BKN110,0.00,VWS V14.00,2013-01-06 08:50:00,
2013-01-06 03:55:00,25.9,20.0,30.13,NW,322,0.0,0.0,78,0.00,,BKN110,0.00,VWS V14.00,2013-01-06 08:55:00,
2013-01-06 04:00:00,25.9,20.0,30.12,NW,322,0.0,0.0,78,0.00,,BKN110,0.00,VWS V14.00,2013-01-06 09:00:00,
2013-01-06 04:05:00,25.9,19.7,30.12,NW,322,0.0,0.0,77,0.00,,OVC070,0.00,VWS V14.00,2013-01-06 09:05:00,
2013-01-06 04:10:00,26.1,19.9,30.12,NW,322,0.0,0.0,77,0.00,,OVC070,0.00,VWS V14.00,2013-01-06 09:10:00,
2013-01-06 04:15:00,26.2,20.3,30.12,NW,322,0.0,0.0,78,0.00,,OVC070,0.00,VWS V14.00,2013-01-06 09:15:00,
2013-01-06 04:20:00,26.2,20.0,30.13,NW,322,0.0,0.0,77,0.00,,OVC070,0.00,VWS V14.00,2013-01-06 09:20:00,
2013-01-06 04:25:00,26.2,20.0,30.12,NW,322,0.0,0.0,77,0.00,,OVC070,0.00,VWS V14.00,2013-01-06 09:25:00,
2013-01-06 04:30:00,26.3,19.8,30.12,NW,322,0.0,0.0,76,0.00,,OVC070,0.00,VWS V14.00,2013-01-06 09:30:00,
2013-01-06 04:35:00,26.4,20.2,30.12,NW,322,0.0,0.0,77,0.00,,OVC070,0.00,VWS V14.00,2013-01-06 09:35:00,
2013-01-06 04:40:00,26.4,20.5,30.11,NW,322,0.0,0.0,78,0.00,,OVC070,0.00,VWS V14.00,2013-01-06 09:40:00,
2013-01-06 04:45:00,26.1,20.2,30.11,NW,322,0.0,0.0,78,0.00,,OVC070,0.00,VWS V14.00,2013-01-06 09:45:00,
2013-01-06 04:50:00,25.9,20.3,30.10,NW,322,0.0,0.0,79,0.00,,OVC070,0.00,VWS V14.00,2013-01-06 09:50:00,
2013-01-06 04:55:00,25.8,20.2,30.10,NW,322,0.0,0.0,79,0.00,,OVC070,0.00,VWS V14.00,2013-01-06 09:55:00,
2013-01-06 05:00:00,25.8,20.5,30.10,NW,322,0.0,0.0,80,0.00,,OVC070,0.01,VWS V14.00,2013-01-06 10:00:00,
2013-01-06 05:05:00,25.8,20.8,30.10,NW,308,0.0,0.0,81,0.00,,,0.00,VWS V14.00,2013-01-06 10:05:00,
2013-01-06 05:10:00,25.8,21.1,30.09,NW,308,0.0,0.0,82,0.00,,,0.00,VWS V14.00,2013-01-06 10:10:00,
2013-01-06 05:15:00,25.9,21.2,30.09,NW,308,0.0,0.0,82,0.00,,,0.00,VWS V14.00,2013-01-06 10:15:00,
2013-01-06 05:20:00,26.1,21.6,30.09,NW,308,0.0,0.0,83,0.00,,,0.00,VWS V14.00,2013-01-06 10:20:00,
2013-01-06 05:25:00,26.1,21.9,30.09,NW,308,0.0,0.0,84,0.00,,,0.00,VWS V14.00,2013-01-06 10:25:00,
2013-01-06 05:30:00,26.1,21.9,30.09,WSW,250,0.0,2.0,84,0.00,,,0.00,VWS V14.00,2013-01-06 10:30:00,
2013-01-06 05:35:00,26.3,22.4,30.08,WSW,250,0.0,0.0,85,0.00,,,0.00,VWS V14.00,2013-01-06 10:35:00,
2013-01-06 05:40:00,26.2,22.0,30.08,WSW,250,0.0,0.0,84,0.00,,,0.00,VWS V14.00,2013-01-06 10:40:00,
2013-01-06 05:45:00,26.3,22.7,30.08,WSW,249,0.0,0.0,86,0.00,,,0.00,VWS V14.00,2013-01-06 10:45:00,
2013-01-06 05:50:00,26.2,22.6,30.07,WSW,249,0.0,0.0,86,0.00,,,0.00,VWS V14.00,2013-01-06 10:50:00,
2013-01-06 05:55:00,26.2,22.6,30.07,WSW,243,0.0,0.0,86,0.00,,,0.00,VWS V14.00,2013-01-06 10:55:00,
2013-01-06 06:00:00,26.1,22.5,30.07,WSW,243,0.0,0.0,86,0.00,,,0.00,VWS V14.00,2013-01-06 11:00:00,
2013-01-06 06:05:00,25.9,22.0,30.08,WSW,243,0.0,0.0,85,0.00,,,0.00,VWS V14.00,2013-01-06 11:05:00,
2013-01-06 06:10:00,26.0,22.1,30.08,WSW,243,0.0,0.0,85,0.00,,,0.00,VWS V14.00,2013-01-06 11:10:00,
2013-01-06 06:15:00,25.8,22.2,30.07,WSW,242,0.0,0.0,86,0.00,,,0.00,VWS V14.00,2013-01-06 11:15:00,
2013-01-06 06:20:00,25.8,21.9,30.08,WSW,242,0.0,0.0,85,0.00,,,0.00,VWS V14.00,2013-01-06 11:20:00,
2013-01-06 06:25:00,25.8,22.2,30.07,WSW,242,0.0,0.0,86,0.00,,,0.00,VWS V14.00,2013-01-06 11:25:00,
2013-01-06 06:30:00,25.8,22.2,30.07,WSW,242,0.0,0.0,86,0.00,,,0.00,VWS V14.00,2013-01-06 11:30:00,
2013-01-06 06:35:00,25.7,22.1,30.06,WSW,242,0.0,0.0,86,0.00,,,0.00,VWS V14.00,2013-01-06 11:35:00,
2013-01-06 06:40:00,25.6,22.0,30.06,WSW,242,0.0,0.0,86,0.00,,,0.00,VWS V14.00,2013-01-06 11:40:00,
2013-01-06 06:45:00,25.7,22.4,30.06,WSW,242,0.0,0.0,87,0.00,,,0.00,VWS V14.00,2013-01-06 11:45:00,
2013-01-06 06:50:00,25.6,22.3,30.06,WSW,242,0.0,0.0,87,0.00,,,0.00,VWS V14.00,2013-01-06 11:50:00,
2013-01-06 06:55:00,25.6,22.3,30.06,WSW,242,0.0,0.0,87,0.00,,,0.00,VWS V14.00,2013-01-06 11:55:00,
2013-01-06 07:00:00,25.8,22.5,30.06,WSW,242,0.0,0.0,87,0.00,,,0.00,VWS V14.00,2013-01-06 12:00:00,
2013-01-06 07:05:00,25.8,22.5,30.06,WSW,242,0.0,0.0,87,0.00,,,0.00,VWS V14.00,2013-01-06 12:05:00,
2013-01-06 07:10:00,25.9,22.8,30.05,WSW,239,0.0,0.0,88,0.00,,,0.00,VWS V14.00,2013-01-06 12:10:00,
2013-01-06 07:15:00,26.1,23.0,30.05,WSW,237,0.0,0.0,88,0.00,,,0.00,VWS V14.00,2013-01-06 12:15:00,
2013-01-06 07:20:00,26.3,23.2,30.05,SW,236,0.0,0.0,88,0.00,,,0.00,VWS V14.00,2013-01-06 12:20:00,
2013-01-06 07:25:00,26.4,23.6,30.05,SW,231,0.0,0.0,89,0.00,,,0.00,VWS V14.00,2013-01-06 12:25:00,
2013-01-06 07:30:00,26.7,23.9,30.05,SW,233,0.0,0.0,89,0.00,,,0.00,VWS V14.00,2013-01-06 12:30:00,
2013-01-06 07:35:00,26.8,24.3,30.05,SW,232,0.0,0.0,90,0.00,,,0.00,VWS V14.00,2013-01-06 12:35:00,
2013-01-06 07:40:00,27.0,24.5,30.06,SW,236,0.0,1.0,90,0.00,,,0.00,VWS V14.00,2013-01-06 12:40:00,
2013-01-06 07:45:00,27.0,24.5,30.06,SW,234,0.0,2.0,90,0.00,,,0.00,VWS V14.00,2013-01-06 12:45:00,
2013-01-06 07:50:00,27.1,24.6,30.05,SW,226,0.0,3.0,90,0.00,,,0.00,VWS V14.00,2013-01-06 12:50:00,
2013-01-06 07:55:00,27.1,24.6,30.05,WSW,240,0.0,3.0,90,0.00,,,0.00,VWS V14.00,2013-01-06 12:55:00,
2013-01-06 08:00:00,27.0,24.5,30.05,WSW,238,0.0,3.0,90,0.00,,,0.00,VWS V14.00,2013-01-06 13:00:00,
2013-01-06 08:05:00,27.0,24.5,30.05,SW,236,0.0,0.0,90,0.00,,OVC080,0.00,VWS V14.00,2013-01-06 13:05:00,
2013-01-06 08:10:00,27.0,24.7,30.05,WSW,237,0.0,0.0,91,0.00,,OVC080,0.00,VWS V14.00,2013-01-06 13:10:00,
2013-01-06 08:15:00,27.1,24.8,30.05,SW,235,0.0,0.0,91,0.00,,OVC080,0.00,VWS V14.00,2013-01-06 13:15:00,
2013-01-06 08:20:00,27.1,24.6,30.05,SW,235,0.0,0.0,90,0.00,,OVC080,0.00,VWS V14.00,2013-01-06 13:20:00,
2013-01-06 08:25:00,27.3,24.8,30.06,WSW,243,0.0,2.0,90,0.00,,OVC080,0.00,VWS V14.00,2013-01-06 13:25:00,
2013-01-06 08:30:00,27.4,24.9,30.05,SSW,206,0.0,2.0,90,0.00,,OVC080,0.00,VWS V14.00,2013-01-06 13:30:00,
2013-01-06 08:35:00,27.7,25.2,30.05,SW,223,0.0,3.0,90,0.00,,OVC080,0.00,VWS V14.00,2013-01-06 13:35:00,
2013-01-06 08:40:00,27.9,25.6,30.05,SW,235,0.0,3.0,91,0.00,,OVC080,0.00,VWS V14.00,2013-01-06 13:40:00,
2013-01-06 08:45:00,28.2,25.9,30.05,SW,232,0.0,3.0,91,0.00,,OVC080,0.00,VWS V14.00,2013-01-06 13:45:00,
2013-01-06 08:50:00,28.3,26.0,30.05,WSW,242,0.0,5.0,91,0.00,,OVC080,0.00,VWS V14.00,2013-01-06 13:50:00,
2013-01-06 08:55:00,28.6,26.0,30.05,South,191,1.0,5.0,90,0.00,,OVC080,0.00,VWS V14.00,2013-01-06 13:55:00,
2013-01-06 09:00:00,28.7,26.1,30.04,SSW,206,0.0,5.0,90,0.00,,OVC080,0.00,VWS V14.00,2013-01-06 14:00:00,
2013-01-06 09:05:00,29.0,26.4,30.04,SW,221,3.0,7.0,90,0.00,,FEW110,0.00,VWS V14.00,2013-01-06 14:05:00,
2013-01-06 09:10:00,29.2,26.6,30.04,SW,222,1.0,7.0,90,0.00,,FEW110,0.00,VWS V14.00,2013-01-06 14:10:00,
2013-01-06 09:15:00,29.5,26.7,30.04,SW,226,2.0,7.0,89,0.00,,FEW110,0.00,VWS V14.00,2013-01-06 14:15:00,
2013-01-06 09:20:00,29.8,26.7,30.04,SW,226,3.0,7.0,88,0.00,,FEW110,0.00,VWS V14.00,2013-01-06 14:20:00,
2013-01-06 09:25:00,30.1,26.7,30.03,SW,230,3.0,7.0,87,0.00,,FEW110,0.00,VWS V14.00,2013-01-06 14:25:00,
2013-01-06 09:30:00,30.5,27.1,30.03,SW,225,1.0,7.0,87,0.00,,FEW110,0.00,VWS V14.00,2013-01-06 14:30:00,
2013-01-06 09:35:00,31.0,27.6,30.04,SW,225,2.0,5.0,87,0.00,,FEW110,0.00,VWS V14.00,2013-01-06 14:35:00,
2013-01-06 09:40:00,31.3,27.6,30.03,SSW,195,3.0,7.0,86,0.00,,FEW110,0.00,VWS V14.00,2013-01-06 14:40:00,
2013-01-06 09:45:00,31.7,27.4,30.04,SSW,198,2.0,7.0,84,0.00,,FEW110,0.00,VWS V14.00,2013-01-06 14:45:00,
2013-01-06 09:50:00,32.0,27.4,30.03,SSW,200,3.0,7.0,83,0.00,,FEW110,0.00,VWS V14.00,2013-01-06 14:50:00,
2013-01-06 09:55:00,32.4,27.5,30.03,South,191,1.0,10.0,82,0.00,,FEW110,0.00,VWS V14.00,2013-01-06 14:55:00,
2013-01-06 10:00:00,33.0,27.8,30.03,South,191,2.0,10.0,81,0.00,,FEW110,0.00,VWS V14.00,2013-01-06 15:00:00,
2013-01-06 10:05:00,33.4,27.9,30.03,South,191,2.0,4.0,80,0.00,,CLR,0.00,VWS V14.00,2013-01-06 15:05:00,
2013-01-06 10:10:00,33.7,27.6,30.03,West,269,2.0,8.0,78,0.00,,CLR,0.00,VWS V14.00,2013-01-06 15:10:00,
2013-01-06 10:15:00,33.8,27.4,30.03,WSW,237,4.0,11.0,77,0.00,,CLR,0.00,VWS V14.00,2013-01-06 15:15:00,
2013-01-06 10:20:00,34.0,27.6,30.03,WSW,240,2.0,11.0,77,0.00,,CLR,0.00,VWS V14.00,2013-01-06 15:20:00,
2013-01-06 10:25:00,34.3,27.5,30.02,WNW,294,4.0,11.0,76,0.00,,CLR,0.00,VWS V14.00,2013-01-06 15:25:00,
2013-01-06 10:30:00,34.4,27.6,30.02,NW,309,2.0,11.0,76,0.00,,CLR,0.00,VWS V14.00,2013-01-06 15:30:00,
2013-01-06 10:35:00,34.6,27.5,30.02,SW,226,3.0,7.0,75,0.00,,CLR,0.00,VWS V14.00,2013-01-06 15:35:00,
2013-01-06 10:40:00,34.7,27.6,30.02,WNW,283,2.0,8.0,75,0.00,,CLR,0.00,VWS V14.00,2013-01-06 15:40:00,
2013-01-06 10:45:00,35.0,27.9,30.01,West,266,2.0,9.0,75,0.00,,CLR,0.00,VWS V14.00,2013-01-06 15:45:00,
2013-01-06 10:50:00,35.3,28.2,30.01,NNW,330,8.0,9.0,75,0.00,,CLR,0.00,VWS V14.00,2013-01-06 15:50:00,
2013-01-06 10:55:00,35.4,27.6,30.01,WSW,251,1.0,11.0,73,0.00,,CLR,0.00,VWS V14.00,2013-01-06 15:55:00,
2013-01-06 11:00:00,35.5,28.0,30.00,West,269,4.0,11.0,74,0.00,,CLR,0.01,VWS V14.00,2013-01-06 16:00:00,
2013-01-06 11:05:00,35.7,27.6,29.99,South,190,5.0,10.0,72,0.00,,CLR,0.00,VWS V14.00,2013-01-06 16:05:00,
2013-01-06 11:10:00,35.8,28.0,29.99,SW,214,3.0,10.0,73,0.00,,CLR,0.00,VWS V14.00,2013-01-06 16:10:00,
2013-01-06 11:15:00,36.1,28.0,29.98,SW,235,2.0,10.0,72,0.00,,CLR,0.00,VWS V14.00,2013-01-06 16:15:00,
2013-01-06 11:20:00,36.4,28.2,29.98,WSW,252,1.0,10.0,72,0.00,,CLR,0.00,VWS V14.00,2013-01-06 16:20:00,
2013-01-06 11:25:00,36.5,28.0,29.98,SW,224,3.0,10.0,71,0.00,,CLR,0.00,VWS V14.00,2013-01-06 16:25:00,
2013-01-06 11:30:00,36.8,28.3,29.97,WNW,286,4.0,10.0,71,0.00,,CLR,0.00,VWS V14.00,2013-01-06 16:30:00,
2013-01-06 11:35:00,37.1,28.6,29.98,SSW,213,3.0,7.0,71,0.00,,CLR,0.00,VWS V14.00,2013-01-06 16:35:00,
2013-01-06 11:40:00,37.4,28.9,29.97,SW,229,3.0,7.0,71,0.00,,CLR,0.00,VWS V14.00,2013-01-06 16:40:00,
2013-01-06 11:45:00,37.7,28.8,29.97,WNW,287,1.0,7.0,70,0.00,,CLR,0.00,VWS V14.00,2013-01-06 16:45:00,
2013-01-06 11:50:00,38.3,29.0,29.96,West,267,2.0,7.0,69,0.00,,CLR,0.00,VWS V14.00,2013-01-06 16:50:00,
2013-01-06 11:55:00,38.4,28.8,29.96,West,270,1.0,7.0,68,0.00,,CLR,0.00,VWS V14.00,2013-01-06 16:55:00,
2013-01-06 12:00:00,38.7,29.1,29.95,WSW,257,2.0,7.0,68,0.01,,CLR,0.01,VWS V14.00,2013-01-06 17:00:00,
2013-01-06 12:05:00,38.8,29.2,29.95,West,274,2.0,5.0,68,0.01,,CLR,0.01,VWS V14.00,2013-01-06 17:05:00,
2013-01-06 12:10:00,39.1,29.1,29.95,WNW,298,1.0,9.0,67,0.01,,CLR,0.01,VWS V14.00,2013-01-06 17:10:00,
2013-01-06 12:15:00,39.4,29.4,29.95,West,276,3.0,9.0,67,0.01,,CLR,0.01,VWS V14.00,2013-01-06 17:15:00,
2013-01-06 12:20:00,39.5,29.1,29.95,NW,308,2.0,9.0,66,0.01,,CLR,0.01,VWS V14.00,2013-01-06 17:20:00,
2013-01-06 12:25:00,39.5,29.1,29.94,WSW,252,4.0,18.0,66,0.01,,CLR,0.01,VWS V14.00,2013-01-06 17:25:00,
2013-01-06 12:30:00,39.5,29.1,29.94,West,279,1.0,18.0,66,0.01,,CLR,0.01,VWS V14.00,2013-01-06 17:30:00,
2013-01-06 12:35:00,39.8,29.0,29.95,SW,221,1.0,8.0,65,0.01,,CLR,0.01,VWS V14.00,2013-01-06 17:35:00,
2013-01-06 12:40:00,40.3,29.5,29.95,SW,232,2.0,8.0,65,0.00,,CLR,0.01,VWS V14.00,2013-01-06 17:40:00,
2013-01-06 12:45:00,40.7,29.5,29.94,West,279,4.0,8.0,64,0.00,,CLR,0.01,VWS V14.00,2013-01-06 17:45:00,
2013-01-06 12:50:00,41.0,29.4,29.94,WNW,296,2.0,8.0,63,0.00,,CLR,0.01,VWS V14.00,2013-01-06 17:50:00,
2013-01-06 12:55:00,41.4,29.8,29.94,SW,220,1.0,8.0,63,0.00,,CLR,0.01,VWS V14.00,2013-01-06 17:55:00,
2013-01-06 13:00:00,41.5,29.9,29.93,North,353,2.0,8.0,63,0.00,,CLR,0.01,VWS V14.00,2013-01-06 18:00:00,
2013-01-06 13:05:00,41.1,29.1,29.94,WNW,294,1.0,10.0,62,0.01,,CLR,0.02,VWS V14.00,2013-01-06 18:05:00,
2013-01-06 13:10:00,41.0,29.0,29.93,NNW,337,1.0,10.0,62,0.01,,CLR,0.02,VWS V14.00,2013-01-06 18:10:00,
2013-01-06 13:15:00,40.8,28.8,29.93,WSW,257,1.0,10.0,62,0.01,,CLR,0.02,VWS V14.00,2013-01-06 18:15:00,
2013-01-06 13:20:00,40.8,29.2,29.92,West,276,2.0,10.0,63,0.01,,CLR,0.02,VWS V14.00,2013-01-06 18:20:00,
2013-01-06 13:25:00,41.0,29.0,29.92,West,262,2.0,10.0,62,0.01,,CLR,0.02,VWS V14.00,2013-01-06 18:25:00,
2013-01-06 13:30:00,41.0,29.0,29.92,NNW,347,0.0,1.0,62,0.01,,CLR,0.02,VWS V14.00,2013-01-06 18:30:00,
2013-01-06 13:35:00,41.1,29.1,29.93,NW,318,7.0,7.0,62,0.01,,CLR,0.02,VWS V14.00,2013-01-06 18:35:00,
2013-01-06 13:40:00,41.2,29.2,29.93,West,262,4.0,7.0,62,0.01,,CLR,0.02,VWS V14.00,2013-01-06 18:40:00,
2013-01-06 13:45:00,41.4,29.4,29.93,North,349,3.0,8.0,62,0.01,,CLR,0.02,VWS V14.00,2013-01-06 18:45:00,
2013-01-06 13:50:00,41.1,28.7,29.94,NNW,330,9.0,10.0,61,0.01,,CLR,0.02,VWS V14.00,2013-01-06 18:50:00,
2013-01-06 13:55:00,40.8,28.8,29.93,North,352,9.0,10.0,62,0.01,,CLR,0.02,VWS V14.00,2013-01-06 18:55:00,
2013-01-06 14:00:00,40.5,28.5,29.93,WNW,294,2.0,4.0,62,0.01,,CLR,0.02,VWS V14.00,2013-01-06 19:00:00,
2013-01-06 14:05:00,40.5,28.5,29.93,SW,218,3.0,6.0,62,0.00,,CLR,0.02,VWS V14.00,2013-01-06 19:05:00,
2013-01-06 14:10:00,40.5,28.9,29.93,NNW,333,6.0,8.0,63,0.00,,CLR,0.02,VWS V14.00,2013-01-06 19:10:00,
2013-01-06 14:15:00,40.5,28.5,29.93,North,349,3.0,9.0,62,0.00,,CLR,0.02,VWS V14.00,2013-01-06 19:15:00,
2013-01-06 14:20:00,40.5,28.5,29.93,NW,320,5.0,9.0,62,0.00,,CLR,0.02,VWS V14.00,2013-01-06 19:20:00,
2013-01-06 14:25:00,40.5,28.9,29.93,West,261,0.0,9.0,63,0.00,,CLR,0.02,VWS V14.00,2013-01-06 19:25:00,
2013-01-06 14:30:00,40.4,28.8,29.94,North,358,2.0,4.0,63,0.00,,CLR,0.02,VWS V14.00,2013-01-06 19:30:00,
2013-01-06 14:35:00,39.8,28.2,29.94,NW,312,1.0,6.0,63,0.00,,CLR,0.02,VWS V14.00,2013-01-06 19:35:00,
2013-01-06 14:40:00,39.4,28.2,29.94,WSW,255,4.0,6.0,64,0.00,,CLR,0.02,VWS V14.00,2013-01-06 19:40:00,
2013-01-06 14:45:00,38.9,28.1,29.94,NNW,337,5.0,10.0,65,0.00,,CLR,0.02,VWS V14.00,2013-01-06 19:45:00,
2013-01-06 14:51:00,38.7,28.0,29.94,NNW,348,1.0,10.0,65,0.00,,CLR,0.02,VWS V14.00,2013-01-06 19:51:00,
2013-01-06 14:56:00,38.4,28.0,29.94,North,355,4.0,10.0,66,0.00,,CLR,0.02,VWS V14.00,2013-01-06 19:56:00,
2013-01-06 15:01:00,38.5,28.1,29.94,NW,326,2.0,6.0,66,0.00,,SCT120,0.02,VWS V14.00,2013-01-06 20:01:00,
2013-01-06 15:07:00,38.5,28.1,29.93,North,357,1.0,6.0,66,0.00,,SCT120,0.02,VWS V14.00,2013-01-06 20:07:00,
2013-01-06 15:11:00,38.7,28.3,29.94,North,356,3.0,6.0,66,0.01,,SCT120,0.03,VWS V14.00,2013-01-06 20:11:00,
2013-01-06 15:13:00,38.7,28.3,29.93,NNW,332,1.0,6.0,66,0.01,,SCT120,0.03,VWS V14.00,2013-01-06 20:13:00,
2013-01-06 15:18:00,38.5,28.1,29.93,NW,312,2.0,8.0,66,0.01,,SCT120,0.03,VWS V14.00,2013-01-06 20:18:00,
2013-01-06 15:23:00,38.3,28.0,29.93,North,355,1.0,8.0,66,0.01,,SCT120,0.03,VWS V14.00,2013-01-06 20:23:00,
2013-01-06 15:28:00,38.1,27.8,29.93,North,355,1.0,8.0,66,0.01,,SCT120,0.03,VWS V14.00,2013-01-06 20:28:00,
2013-01-06 15:33:00,38.0,28.0,29.93,North,355,1.0,3.0,67,0.01,,SCT120,0.03,VWS V14.00,2013-01-06 20:33:00,
2013-01-06 15:38:00,37.8,27.8,29.94,North,355,0.0,3.0,67,0.01,,SCT120,0.03,VWS V14.00,2013-01-06 20:38:00,
2013-01-06 15:43:00,37.5,27.9,29.93,North,355,0.0,3.0,68,0.01,,SCT120,0.03,VWS V14.00,2013-01-06 20:43:00,
2013-01-06 15:48:00,37.3,27.7,29.93,North,355,2.0,3.0,68,0.01,,SCT120,0.03,VWS V14.00,2013-01-06 20:48:00,
2013-01-06 15:53:00,37.0,27.8,29.93,North,355,1.0,4.0,69,0.01,,SCT120,0.03,VWS V14.00,2013-01-06 20:53:00,
2013-01-06 15:58:00,36.8,27.6,29.93,North,355,0.0,4.0,69,0.01,,SCT120,0.03,VWS V14.00,2013-01-06 20:58:00,
2013-01-06 16:01:00,36.8,27.2,29.93,North,355,2.0,2.0,68,0.00,,CLR,0.03,VWS V14.00,2013-01-06 21:01:00,
2013-01-06 16:06:00,36.7,27.5,29.93,North,356,4.0,4.0,69,0.00,,CLR,0.03,VWS V14.00,2013-01-06 21:06:00,
2013-01-06 16:11:00,36.5,27.3,29.93,NNW,330,2.0,5.0,69,0.00,,CLR,0.03,VWS V14.00,2013-01-06 21:11:00,
2013-01-06 16:16:00,36.4,27.6,29.93,NNW,330,1.0,5.0,70,0.00,,CLR,0.03,VWS V14.00,2013-01-06 21:16:00,
2013-01-06 16:21:00,36.3,27.1,29.93,NNW,330,1.0,5.0,69,0.00,,CLR,0.03,VWS V14.00,2013-01-06 21:21:00,
2013-01-06 16:26:00,36.0,27.2,29.93,NNW,330,0.0,5.0,70,0.00,,CLR,0.03,VWS V14.00,2013-01-06 21:26:00,
2013-01-06 16:31:00,35.7,26.5,29.94,NNW,330,1.0,1.0,69,0.00,,CLR,0.03,VWS V14.00,2013-01-06 21:31:00,
2013-01-06 16:36:00,35.3,26.5,29.93,NNW,330,1.0,2.0,70,0.00,,CLR,0.03,VWS V14.00,2013-01-06 21:36:00,
2013-01-06 16:41:00,35.0,26.6,29.94,NNW,330,0.0,2.0,71,0.00,,CLR,0.03,VWS V14.00,2013-01-06 21:41:00,
2013-01-06 16:46:00,34.6,26.2,29.94,NNW,330,0.0,2.0,71,0.00,,CLR,0.03,VWS V14.00,2013-01-06 21:46:00,
2013-01-06 16:51:00,34.1,25.7,29.93,NNW,330,1.0,2.0,71,0.00,,CLR,0.03,VWS V14.00,2013-01-06 21:51:00,
2013-01-06 16:56:00,33.5,25.5,29.94,NNW,330,2.0,2.0,72,0.00,,CLR,0.03,VWS V14.00,2013-01-06 21:56:00,
2013-01-06 17:01:00,33.3,25.6,29.94,NNW,330,2.0,3.0,73,0.00,,CLR,0.03,VWS V14.00,2013-01-06 22:01:00,
2013-01-06 17:06:00,33.0,25.3,29.95,NNW,330,1.0,3.0,73,0.00,,CLR,0.03,VWS V14.00,2013-01-06 22:06:00,
2013-01-06 17:11:00,32.7,25.3,29.94,NNW,330,0.0,3.0,74,0.00,,CLR,0.03,VWS V14.00,2013-01-06 22:11:00,
2013-01-06 17:16:00,32.5,25.1,29.94,NNW,330,0.0,3.0,74,0.00,,CLR,0.03,VWS V14.00,2013-01-06 22:16:00,
2013-01-06 17:21:00,32.2,25.2,29.94,NNW,330,1.0,3.0,75,0.00,,CLR,0.03,VWS V14.00,2013-01-06 22:21:00,
2013-01-06 17:26:00,31.9,25.2,29.94,NNW,330,0.0,3.0,76,0.00,,CLR,0.03,VWS V14.00,2013-01-06 22:26:00,
2013-01-06 17:31:00,31.7,25.0,29.95,NNW,330,0.0,0.0,76,0.00,,CLR,0.03,VWS V14.00,2013-01-06 22:31:00,
2013-01-06 17:36:00,31.7,25.3,29.94,NNW,330,1.0,2.0,77,0.00,,CLR,0.03,VWS V14.00,2013-01-06 22:36:00,
2013-01-06 17:41:00,31.7,25.3,29.95,NNW,330,1.0,2.0,77,0.00,,CLR,0.03,VWS V14.00,2013-01-06 22:41:00,
2013-01-06 17:46:00,31.7,25.3,29.95,NNW,330,1.0,2.0,77,0.00,,CLR,0.03,VWS V14.00,2013-01-06 22:46:00,
2013-01-06 17:51:00,31.7,25.0,29.94,NNW,330,1.0,3.0,76,0.00,,CLR,0.03,VWS V14.00,2013-01-06 22:51:00,
2013-01-06 17:56:00,31.9,25.5,29.95,NNW,330,2.0,3.0,77,0.00,,CLR,0.03,VWS V14.00,2013-01-06 22:56:00,
2013-01-06 18:01:00,31.9,25.5,29.95,NNW,330,2.0,3.0,77,0.00,,OVC100,0.03,VWS V14.00,2013-01-06 23:01:00,
2013-01-06 18:06:00,31.7,25.3,29.95,NNW,330,2.0,3.0,77,0.00,,OVC100,0.03,VWS V14.00,2013-01-06 23:06:00,
2013-01-06 18:11:00,31.9,25.5,29.95,NNW,330,1.0,3.0,77,0.00,,OVC100,0.03,VWS V14.00,2013-01-06 23:11:00,
2013-01-06 18:16:00,32.0,25.6,29.95,NNW,330,1.0,3.0,77,0.00,,OVC100,0.03,VWS V14.00,2013-01-06 23:16:00,
2013-01-06 18:21:00,32.2,26.1,29.95,NNW,330,3.0,3.0,78,0.00,,OVC100,0.03,VWS V14.00,2013-01-06 23:21:00,
2013-01-06 18:26:00,32.3,26.2,29.95,NNW,330,3.0,3.0,78,0.00,,OVC100,0.03,VWS V14.00,2013-01-06 23:26:00,
2013-01-06 18:31:00,32.5,26.1,29.96,NNW,330,3.0,4.0,77,0.00,,OVC100,0.03,VWS V14.00,2013-01-06 23:31:00,
2013-01-06 18:36:00,32.7,26.6,29.95,NNW,330,2.0,4.0,78,0.00,,OVC100,0.03,VWS V14.00,2013-01-06 23:36:00,
2013-01-06 18:41:00,33.1,26.7,29.95,NNW,330,1.0,4.0,77,0.00,,OVC100,0.03,VWS V14.00,2013-01-06 23:41:00,
2013-01-06 18:46:00,33.3,26.9,29.95,NNW,330,1.0,4.0,77,0.00,,OVC100,0.03,VWS V14.00,2013-01-06 23:46:00,
2013-01-06 18:51:00,33.4,27.0,29.95,NNW,330,1.0,4.0,77,0.00,,OVC100,0.03,VWS V14.00,2013-01-06 23:51:00,
2013-01-06 18:56:00,33.4,26.7,29.95,NNW,330,2.0,4.0,76,0.00,,OVC100,0.03,VWS V14.00,2013-01-06 23:56:00,
2013-01-06 19:01:00,33.5,26.8,29.95,NNW,330,2.0,2.0,76,0.00,,OVC100,0.03,VWS V14.00,2013-01-07 00:01:00,
2013-01-06 19:06:00,33.5,26.8,29.94,NNW,330,2.0,3.0,76,0.00,,OVC100,0.03,VWS V14.00,2013-01-07 00:06:00,
2013-01-06 19:11:00,33.8,27.0,29.95,NNW,330,1.0,3.0,76,0.00,,OVC100,0.03,VWS V14.00,2013-01-07 00:11:00,
2013-01-06 19:16:00,34.1,27.3,29.95,NNW,330,3.0,3.0,76,0.00,,OVC100,0.03,VWS V14.00,2013-01-07 00:16:00,
2013-01-06 19:21:00,34.3,27.5,29.95,NNW,330,1.0,3.0,76,0.00,,OVC100,0.03,VWS V14.00,2013-01-07 00:21:00,
2013-01-06 19:26:00,34.3,27.2,29.95,NNW,330,1.0,3.0,75,0.00,,OVC100,0.03,VWS V14.00,2013-01-07 00:26:00,
2013-01-06 19:31:00,34.3,27.2,29.94,NNW,330,1.0,2.0,75,0.00,,OVC100,0.03,VWS V14.00,2013-01-07 00:31:00,
2013-01-06 19:36:00,34.3,27.2,29.94,NNW,330,0.0,3.0,75,0.00,,OVC100,0.03,VWS V14.00,2013-01-07 00:36:00,
2013-01-06 19:41:00,34.3,27.2,29.95,NNW,330,0.0,3.0,75,0.00,,OVC100,0.03,VWS V14.00,2013-01-07 00:41:00,
2013-01-06 19:46:00,34.4,27.3,29.95,NNW,330,1.0,3.0,75,0.00,,OVC100,0.03,VWS V14.00,2013-01-07 00:46:00,
2013-01-06 19:51:00,34.4,27.3,29.96,NNW,330,2.0,3.0,75,0.00,,OVC100,0.03,VWS V14.00,2013-01-07 00:51:00,
2013-01-06 19:56:00,34.4,27.3,29.95,NNW,330,2.0,3.0,75,0.00,,OVC100,0.03,VWS V14.00,2013-01-07 00:56:00,
2013-01-06 20:01:00,34.4,27.3,29.95,NNW,330,1.0,2.0,75,0.00,,OVC100,0.03,VWS V14.00,2013-01-07 01:01:00,
2013-01-06 20:06:00,34.4,27.3,29.95,NNW,330,1.0,2.0,75,0.00,,OVC100,0.03,VWS V14.00,2013-01-07 01:06:00,
2013-01-06 20:11:00,34.4,27.0,29.95,NNW,330,1.0,3.0,74,0.00,,OVC100,0.03,VWS V14.00,2013-01-07 01:11:00,
2013-01-06 20:16:00,34.5,27.4,29.96,NNW,330,2.0,3.0,75,0.00,,OVC100,0.03,VWS V14.00,2013-01-07 01:16:00,
2013-01-06 20:21:00,34.7,27.3,29.95,NNW,330,1.0,3.0,74,0.00,,OVC100,0.03,VWS V14.00,2013-01-07 01:21:00,
2013-01-06 20:26:00,34.5,27.1,29.95,NNW,330,2.0,3.0,74,0.00,,OVC100,0.03,VWS V14.00,2013-01-07 01:26:00,
2013-01-06 20:31:00,34.6,27.5,29.95,NNW,330,2.0,3.0,75,0.00,,OVC100,0.03,VWS V14.00,2013-01-07 01:31:00,
2013-01-06 20:36:00,34.4,27.0,29.96,NNW,330,2.0,3.0,74,0.00,,OVC100,0.03,VWS V14.00,2013-01-07 01:36:00,
2013-01-06 20:41:00,34.4,27.3,29.95,WSW,258,2.0,5.0,75,0.00,,OVC100,0.03,VWS V14.00,2013-01-07 01:41:00,
2013-01-06 20:46:00,34.4,27.3,29.95,WSW,257,2.0,5.0,75,0.00,,OVC100,0.03,VWS V14.00,2013-01-07 01:46:00,
2013-01-06 20:51:00,34.5,27.4,29.95,WSW,257,2.0,5.0,75,0.00,,OVC100,0.03,VWS V14.00,2013-01-07 01:51:00,
2013-01-06 20:56:00,34.5,27.4,29.95,WSW,257,3.0,5.0,75,0.00,,OVC100,0.03,VWS V14.00,2013-01-07 01:56:00,
2013-01-06 21:01:00,34.7,27.6,29.95,WSW,256,4.0,4.0,75,0.00,,OVC100,0.03,VWS V14.00,2013-01-07 02:01:00,
2013-01-06 21:06:00,34.7,27.6,29.95,WSW,247,2.0,5.0,75,0.00,,OVC100,0.03,VWS V14.00,2013-01-07 02:06:00,
2013-01-06 21:11:00,34.7,27.6,29.94,WSW,247,1.0,5.0,75,0.00,,OVC100,0.03,VWS V14.00,2013-01-07 02:11:00,
2013-01-06 21:16:00,34.5,27.4,29.95,WSW,247,3.0,5.0,75,0.00,,OVC100,0.03,VWS V14.00,2013-01-07 02:16:00,
2013-01-06 21:21:00,34.4,27.3,29.94,WSW,247,1.0,5.0,75,0.00,,OVC100,0.03,VWS V14.00,2013-01-07 02:21:00,
2013-01-06 21:26:00,34.1,27.0,29.94,WSW,247,1.0,5.0,75,0.00,,OVC100,0.03,VWS V14.00,2013-01-07 02:26:00,
2013-01-06 21:31:00,34.0,26.9,29.94,WSW,247,1.0,2.0,75,0.00,,OVC100,0.03,VWS V14.00,2013-01-07 02:31:00,
2013-01-06 21:36:00,33.8,27.0,29.95,WSW,247,1.0,2.0,76,0.00,,OVC100,0.03,VWS V14.00,2013-01-07 02:36:00,
2013-01-06 21:41:00,33.7,27.0,29.95,WSW,247,2.0,3.0,76,0.00,,OVC100,0.03,VWS V14.00,2013-01-07 02:41:00,
2013-01-06 21:46:00,33.4,26.7,29.94,WSW,247,1.0,3.0,76,0.00,,OVC100,0.03,VWS V14.00,2013-01-07 02:46:00,
2013-01-06 21:51:00,33.6,27.2,29.95,WSW,247,2.0,3.0,77,0.00,,OVC100,0.03,VWS V14.00,2013-01-07 02:51:00,
2013-01-06 21:56:00,33.7,27.3,29.95,WSW,247,1.0,3.0,77,0.00,,OVC100,0.03,VWS V14.00,2013-01-07 02:56:00,
2013-01-06 22:01:00,33.7,27.3,29.95,WSW,247,2.0,3.0,77,0.00,,OVC095,0.03,VWS V14.00,2013-01-07 03:01:00,
2013-01-06 22:06:00,33.8,27.4,29.95,WSW,247,3.0,3.0,77,0.00,,OVC095,0.03,VWS V14.00,2013-01-07 03:06:00,
2013-01-06 22:11:00,34.0,27.6,29.96,WSW,247,1.0,3.0,77,0.00,,OVC095,0.03,VWS V14.00,2013-01-07 03:11:00,
2013-01-06 22:16:00,34.0,27.6,29.96,WSW,247,1.0,3.0,77,0.00,,OVC095,0.03,VWS V14.00,2013-01-07 03:16:00,
2013-01-06 22:21:00,34.0,27.6,29.96,WSW,247,1.0,3.0,77,0.00,,OVC095,0.03,VWS V14.00,2013-01-07 03:21:00,
2013-01-06 22:26:00,33.8,27.4,29.95,WSW,247,1.0,3.0,77,0.00,,OVC095,0.03,VWS V14.00,2013-01-07 03:26:00,
2013-01-06 22:31:00,33.7,27.3,29.95,WSW,247,1.0,3.0,77,0.00,,OVC095,0.03,VWS V14.00,2013-01-07 03:31:00,
2013-01-06 22:36:00,33.5,27.1,29.94,WSW,247,1.0,3.0,77,0.00,,OVC095,0.03,VWS V14.00,2013-01-07 03:36:00,
2013-01-06 22:41:00,33.5,27.1,29.95,WSW,247,3.0,3.0,77,0.00,,OVC095,0.03,VWS V14.00,2013-01-07 03:41:00,
2013-01-06 22:46:00,33.4,27.0,29.95,WSW,247,1.0,3.0,77,0.00,,OVC095,0.03,VWS V14.00,2013-01-07 03:46:00,
2013-01-06 22:51:00,33.1,26.7,29.95,WSW,247,1.0,4.0,77,0.00,,OVC095,0.03,VWS V14.00,2013-01-07 03:51:00,
2013-01-06 22:56:00,33.0,26.6,29.94,WSW,247,2.0,4.0,77,0.00,,OVC095,0.03,VWS V14.00,2013-01-07 03:56:00,
2013-01-06 23:01:00,32.6,26.2,29.95,WSW,247,1.0,2.0,77,0.00,,OVC100,0.03,VWS V14.00,2013-01-07 04:01:00,
2013-01-06 23:06:00,32.3,25.9,29.95,WSW,247,1.0,2.0,77,0.00,,OVC100,0.03,VWS V14.00,2013-01-07 04:06:00,
2013-01-06 23:11:00,32.0,25.9,29.95,WSW,247,2.0,4.0,78,0.00,,OVC100,0.03,VWS V14.00,2013-01-07 04:11:00,
2013-01-06 23:16:00,31.9,25.8,29.95,WSW,247,1.0,4.0,78,0.00,,OVC100,0.03,VWS V14.00,2013-01-07 04:16:00,
2013-01-06 23:21:00,31.6,25.9,29.95,WSW,247,2.0,4.0,79,0.00,,OVC100,0.03,VWS V14.00,2013-01-07 04:21:00,
2013-01-06 23:26:00,31.3,25.6,29.95,WSW,247,0.0,4.0,79,0.00,,OVC100,0.03,VWS V14.00,2013-01-07 04:26:00,
2013-01-06 23:31:00,31.3,25.6,29.95,WSW,247,1.0,2.0,79,0.00,,OVC100,0.03,VWS V14.00,2013-01-07 04:31:00,
2013-01-06 23:36:00,31.0,25.3,29.94,WSW,247,1.0,3.0,79,0.00,,OVC100,0.03,VWS V14.00,2013-01-07 04:36:00,
2013-01-06 23:41:00,30.8,25.1,29.94,WSW,247,3.0,3.0,79,0.00,,OVC100,0.03,VWS V14.00,2013-01-07 04:41:00,
2013-01-06 23:46:00,30.8,25.4,29.94,WSW,247,1.0,4.0,80,0.00,,OVC100,0.03,VWS V14.00,2013-01-07 04:46:00,
2013-01-06 23:51:00,31.0,25.6,29.95,WSW,247,0.0,4.0,80,0.00,,OVC100,0.03,VWS V14.00,2013-01-07 04:51:00,
2013-01-06 23:56:00,31.0,25.6,29.95,WSW,247,2.0,4.0,80,0.00,,OVC100,0.03,VWS V14.00,2013-01-07 04:56:00,